createdAt,value
2024-04-10T00:00:21.897Z,8.50
2024-04-10T00:02:48.680Z,8.40
2024-04-10T00:05:15.700Z,8.40
2024-04-10T00:07:42.716Z,8.40
2024-04-10T00:10:09.526Z,8.40
2024-04-10T00:12:36.446Z,8.40
2024-04-10T00:15:03.244Z,8.40
2024-04-10T00:17:30.727Z,8.30
2024-04-10T00:19:57.704Z,8.30
2024-04-10T00:22:24.607Z,8.30
2024-04-10T00:24:54.337Z,8.30
2024-04-10T00:27:23.732Z,8.20
2024-04-10T00:29:52.083Z,8.30
2024-04-10T00:32:19.326Z,8.20
2024-04-10T00:34:46.520Z,8.20
2024-04-10T00:37:13.322Z,8.10
2024-04-10T00:39:40.038Z,8.10
2024-04-10T00:42:06.796Z,8.00
2024-04-10T00:44:33.774Z,8.00
2024-04-10T00:47:00.856Z,8.00
2024-04-10T00:49:28.292Z,7.90
2024-04-10T00:51:55.269Z,7.80
2024-04-10T00:54:23.820Z,7.80
2024-04-10T00:56:50.729Z,7.80
2024-04-10T00:59:17.550Z,7.70
2024-04-10T01:01:44.368Z,7.70
2024-04-10T01:04:11.242Z,7.70
2024-04-10T01:06:38.178Z,7.60
2024-04-10T01:09:04.908Z,7.60
2024-04-10T01:11:31.735Z,7.60
2024-04-10T01:13:58.766Z,7.50
2024-04-10T01:16:25.701Z,7.50
2024-04-10T01:18:52.610Z,7.40
2024-04-10T01:21:19.422Z,7.40
2024-04-10T01:23:46.317Z,7.40
2024-04-10T01:26:13.225Z,7.40
2024-04-10T01:28:40.029Z,7.30
2024-04-10T01:31:06.841Z,7.30
2024-04-10T01:33:36.080Z,7.30
2024-04-10T01:36:05.067Z,7.30
2024-04-10T01:38:32.086Z,7.30
2024-04-10T01:40:58.988Z,7.20
2024-04-10T01:43:25.768Z,7.20
2024-04-10T01:45:52.809Z,7.20
2024-04-10T01:48:19.777Z,7.20
2024-04-10T01:50:46.697Z,7.30
2024-04-10T01:53:13.464Z,7.30
2024-04-10T01:55:40.192Z,7.60
2024-04-10T01:58:07.062Z,7.30
2024-04-10T02:00:36.579Z,7.30
2024-04-10T02:03:03.530Z,7.30
2024-04-10T02:05:30.428Z,7.20
2024-04-10T02:07:57.353Z,7.20
2024-04-10T02:10:24.167Z,7.20
2024-04-10T02:12:50.882Z,7.20
2024-04-10T02:15:17.641Z,7.10
2024-04-10T02:17:44.637Z,7.10
2024-04-10T02:20:11.705Z,7.10
2024-04-10T02:22:42.801Z,7.10
2024-04-10T02:25:09.738Z,7.10
2024-04-10T02:27:36.547Z,7.10
2024-04-10T02:30:03.344Z,7.10
2024-04-10T02:32:30.377Z,7.10
2024-04-10T02:34:57.318Z,7.00
2024-04-10T02:37:25.059Z,7.00
2024-04-10T02:39:52.079Z,7.00
2024-04-10T02:42:18.816Z,6.90
2024-04-10T02:44:52.034Z,6.90
2024-04-10T02:47:20.571Z,6.90
2024-04-10T02:49:47.646Z,6.90
2024-04-10T02:52:14.365Z,6.90
2024-04-10T02:54:41.111Z,7.00
2024-04-10T02:57:07.932Z,7.10
2024-04-10T02:59:34.774Z,7.10
2024-04-10T03:02:01.723Z,7.20
2024-04-10T03:04:28.798Z,7.20
2024-04-10T03:06:55.575Z,7.20
2024-04-10T03:09:22.607Z,7.20
2024-04-10T03:11:49.539Z,7.20
2024-04-10T03:14:18.079Z,7.20
2024-04-10T03:16:46.215Z,7.20
2024-04-10T03:19:15.750Z,7.20
2024-04-10T03:21:42.602Z,7.20
2024-04-10T03:24:09.683Z,7.10
2024-04-10T03:26:36.545Z,7.00
2024-04-10T03:29:03.436Z,7.00
2024-04-10T03:31:30.333Z,7.00
2024-04-10T03:33:57.161Z,7.00
2024-04-10T03:36:24.097Z,7.00
2024-04-10T03:38:52.853Z,7.00
2024-04-10T03:41:21.076Z,7.00
2024-04-10T03:43:47.883Z,7.20
2024-04-10T03:46:14.621Z,7.10
2024-04-10T03:48:41.567Z,7.10
2024-04-10T03:51:08.415Z,7.10
2024-04-10T03:53:35.251Z,7.10
2024-04-10T03:56:02.721Z,7.10
2024-04-10T03:58:29.547Z,7.00
2024-04-10T04:00:56.308Z,7.00
2024-04-10T04:03:23.245Z,7.00
2024-04-10T04:05:50.049Z,7.00
2024-04-10T04:08:16.967Z,7.00
2024-04-10T04:10:44.782Z,7.00
2024-04-10T04:13:11.728Z,7.00
2024-04-10T04:15:41.885Z,6.90
2024-04-10T04:18:08.786Z,6.80
2024-04-10T04:20:35.758Z,6.80
2024-04-10T04:23:02.762Z,6.80
2024-04-10T04:25:32.022Z,6.80
2024-04-10T04:27:58.724Z,6.70
2024-04-10T04:30:25.503Z,6.70
2024-04-10T04:32:52.461Z,6.60
2024-04-10T04:35:19.406Z,6.60
2024-04-10T04:37:54.809Z,6.60
2024-04-10T04:40:21.616Z,6.60
2024-04-10T04:42:48.448Z,6.60
2024-04-10T04:45:15.274Z,6.60
2024-04-10T04:47:42.014Z,6.60
2024-04-10T04:50:12.579Z,6.60
2024-04-10T04:52:39.347Z,6.60
2024-04-10T04:55:06.521Z,6.60
2024-04-10T04:57:33.211Z,6.60
2024-04-10T05:00:00.527Z,6.60
2024-04-10T05:02:27.522Z,6.50
2024-04-10T05:05:01.725Z,6.50
2024-04-10T05:07:28.759Z,6.60
2024-04-10T05:09:56.848Z,6.60
2024-04-10T05:12:23.701Z,6.70
2024-04-10T05:14:51.997Z,6.70
2024-04-10T05:17:19.754Z,6.70
2024-04-10T05:19:46.597Z,6.80
2024-04-10T05:22:14.525Z,6.90
2024-04-10T05:24:42.551Z,6.90
2024-04-10T05:27:21.984Z,7.00
2024-04-10T05:29:56.373Z,7.10
2024-04-10T05:32:23.715Z,7.20
2024-04-10T05:34:53.431Z,7.30
2024-04-10T05:37:20.773Z,7.40
2024-04-10T05:40:10.903Z,7.50
2024-04-10T05:42:38.503Z,7.60
2024-04-10T05:45:10.306Z,7.80
2024-04-10T05:47:38.667Z,7.90
2024-04-10T05:50:06.935Z,8.00
2024-04-10T05:52:35.020Z,8.10
2024-04-10T05:55:01.791Z,8.20
2024-04-10T05:57:28.899Z,8.30
2024-04-10T05:59:55.969Z,8.40
2024-04-10T06:02:23.446Z,8.40
2024-04-10T06:04:57.061Z,8.40
2024-04-10T06:07:24.605Z,8.40
2024-04-10T06:09:56.037Z,8.50
2024-04-10T06:12:23.624Z,8.50
2024-04-10T06:14:54.038Z,8.60
2024-04-10T06:17:23.971Z,8.70
2024-04-10T06:19:51.039Z,8.80
2024-04-10T06:22:21.834Z,8.80
2024-04-10T06:24:50.444Z,8.90
2024-04-10T06:27:17.219Z,9.00
2024-04-10T06:29:44.878Z,9.10
2024-04-10T06:32:13.578Z,9.20
2024-04-10T06:34:41.343Z,9.20
2024-04-10T06:37:08.274Z,9.40
2024-04-10T06:39:35.759Z,9.60
2024-04-10T06:42:02.549Z,9.70
2024-04-10T06:44:29.506Z,9.90
2024-04-10T06:46:56.454Z,10.00
2024-04-10T06:49:24.202Z,10.20
2024-04-10T06:51:50.990Z,10.40
2024-04-10T06:54:22.065Z,10.60
2024-04-10T06:56:49.187Z,10.90
2024-04-10T06:59:17.070Z,11.40
2024-04-10T07:01:44.007Z,11.80
2024-04-10T07:04:10.720Z,12.00
2024-04-10T07:06:37.447Z,12.30
2024-04-10T07:09:04.214Z,12.90
2024-04-10T07:11:32.482Z,14.60
2024-04-10T07:14:02.836Z,16.60
2024-04-10T07:16:31.790Z,18.60
2024-04-10T07:18:59.424Z,20.40
2024-04-10T07:21:26.807Z,22.10
2024-04-10T07:23:57.998Z,23.50
2024-04-10T07:26:27.489Z,24.70
2024-04-10T07:28:56.786Z,25.80
2024-04-10T07:31:30.467Z,26.70
2024-04-10T07:33:58.622Z,27.60
2024-04-10T07:36:26.280Z,28.60
2024-04-10T07:38:59.793Z,29.20
2024-04-10T07:41:26.958Z,29.50
2024-04-10T07:43:54.436Z,29.70
2024-04-10T07:46:22.353Z,30.20
2024-04-10T07:48:54.161Z,30.70
2024-04-10T07:51:21.169Z,30.80
2024-04-10T07:53:49.089Z,30.30
2024-04-10T07:56:16.830Z,30.40
2024-04-10T07:58:44.619Z,30.60
2024-04-10T08:01:12.605Z,30.90
2024-04-10T08:03:40.121Z,30.70
2024-04-10T08:06:08.943Z,30.90
2024-04-10T08:08:41.044Z,31.30
2024-04-10T08:11:09.649Z,31.90
2024-04-10T08:13:37.412Z,33.00
2024-04-10T08:16:06.392Z,33.90
2024-04-10T08:18:38.477Z,34.50
2024-04-10T08:21:07.352Z,35.20
2024-04-10T08:23:35.367Z,35.70
2024-04-10T08:26:13.821Z,36.00
2024-04-10T08:28:52.637Z,35.90
2024-04-10T08:31:29.180Z,36.10
2024-04-10T08:33:56.520Z,36.00
2024-04-10T08:36:24.479Z,36.60
2024-04-10T08:38:52.433Z,36.70
2024-04-10T08:41:23.143Z,36.80
2024-04-10T08:43:52.387Z,36.80
2024-04-10T08:46:21.833Z,36.90
2024-04-10T08:48:52.304Z,37.50
2024-04-10T08:51:19.429Z,38.20
2024-04-10T08:53:47.413Z,39.00
2024-04-10T08:56:16.527Z,39.50
2024-04-10T08:58:46.806Z,39.10
2024-04-10T09:01:32.482Z,38.70
2024-04-10T09:04:10.451Z,39.10
2024-04-10T09:06:38.382Z,39.70
2024-04-10T09:09:08.103Z,40.20
2024-04-10T09:11:35.777Z,39.90
2024-04-10T09:14:13.459Z,38.80
2024-04-10T09:16:41.026Z,37.80
2024-04-10T09:19:16.731Z,37.00
2024-04-10T09:21:45.425Z,36.80
2024-04-10T09:24:16.296Z,37.20
2024-04-10T09:26:49.792Z,36.80
2024-04-10T09:29:20.595Z,36.20
2024-04-10T09:33:36.137Z,34.70
2024-04-10T09:36:08.541Z,35.10
2024-04-10T09:38:37.536Z,36.20
2024-04-10T09:41:05.307Z,37.50
2024-04-10T09:43:33.034Z,37.60
2024-04-10T09:46:04.034Z,37.00
2024-04-10T09:48:35.154Z,37.10
2024-04-10T09:51:06.764Z,37.40
2024-04-10T09:53:34.771Z,37.00
2024-04-10T09:56:10.417Z,37.50
2024-04-10T09:58:38.652Z,37.50
2024-04-10T10:01:05.647Z,36.00
2024-04-10T10:03:33.073Z,36.20
2024-04-10T10:06:08.394Z,37.40
2024-04-10T10:08:36.342Z,37.50
2024-04-10T10:11:08.616Z,37.70
2024-04-10T10:13:43.788Z,38.70
2024-04-10T10:16:10.771Z,40.20
2024-04-10T10:18:37.642Z,40.60
2024-04-10T10:21:09.777Z,40.80
2024-04-10T10:23:38.102Z,41.00
2024-04-10T10:26:06.661Z,40.70
2024-04-10T10:28:37.092Z,40.90
2024-04-10T10:31:13.674Z,39.10
2024-04-10T10:33:42.927Z,36.70
2024-04-10T10:36:10.580Z,34.20
2024-04-10T10:38:37.922Z,32.80
2024-04-10T10:41:15.322Z,31.60
2024-04-10T10:43:45.152Z,30.60
2024-04-10T10:46:11.975Z,29.40
2024-04-10T10:48:38.983Z,28.10
2024-04-10T10:51:08.655Z,27.30
2024-04-10T10:53:35.844Z,26.50
2024-04-10T10:56:02.662Z,25.80
2024-04-10T10:58:30.718Z,25.30
2024-04-10T11:00:57.515Z,24.90
2024-04-10T11:03:29.882Z,24.70
2024-04-10T11:06:11.507Z,26.30
2024-04-10T11:08:39.167Z,28.90
2024-04-10T11:11:12.046Z,29.30
2024-04-10T11:13:53.209Z,28.50
2024-04-10T11:16:27.835Z,28.10
2024-04-10T11:18:55.544Z,27.70
2024-04-10T11:21:22.434Z,27.30
2024-04-10T11:23:49.272Z,27.70
2024-04-10T11:26:16.418Z,28.10
2024-04-10T11:28:44.328Z,27.90
2024-04-10T11:31:11.528Z,29.30
2024-04-10T11:33:38.581Z,32.20
2024-04-10T11:36:06.013Z,33.90
2024-04-10T11:38:32.876Z,35.80
2024-04-10T11:41:02.636Z,38.00
2024-04-10T11:43:30.189Z,40.30
2024-04-10T11:45:56.887Z,42.10
2024-04-10T11:48:23.736Z,43.70
2024-04-10T11:50:51.039Z,45.20
2024-04-10T11:53:17.885Z,46.40
2024-04-10T11:55:44.619Z,47.00
2024-04-10T11:58:11.913Z,45.20
2024-04-10T12:00:38.864Z,42.80
2024-04-10T12:03:05.878Z,41.50
2024-04-10T12:05:33.046Z,39.50
2024-04-10T12:07:59.811Z,37.70
2024-04-10T12:10:26.540Z,35.80
2024-04-10T12:12:53.330Z,34.00
2024-04-10T12:15:20.449Z,32.30
2024-04-10T12:17:47.256Z,30.60
2024-04-10T12:20:14.053Z,29.40
2024-04-10T12:22:41.661Z,28.50
2024-04-10T12:25:09.038Z,27.80
2024-04-10T12:27:35.778Z,27.50
2024-04-10T12:30:02.736Z,27.40
2024-04-10T12:32:29.824Z,28.90
2024-04-10T12:35:31.951Z,31.20
2024-04-10T12:38:08.585Z,34.00
2024-04-10T12:40:36.643Z,33.60
2024-04-10T12:43:04.974Z,31.70
2024-04-10T12:45:32.409Z,30.10
2024-04-10T12:47:59.566Z,28.80
2024-04-10T12:50:27.208Z,27.50
2024-04-10T12:52:54.280Z,26.60
2024-04-10T12:55:21.024Z,25.90
2024-04-10T12:57:47.734Z,25.40
2024-04-10T13:00:14.761Z,24.90
2024-04-10T13:02:41.604Z,24.40
2024-04-10T13:05:08.660Z,24.00
2024-04-10T13:07:35.480Z,23.50
2024-04-10T13:10:03.040Z,23.10
2024-04-10T13:12:29.917Z,22.80
2024-04-10T13:14:57.071Z,22.60
2024-04-10T13:17:25.951Z,23.20
2024-04-10T13:19:53.101Z,23.80
2024-04-10T13:22:19.802Z,23.90
2024-04-10T13:24:46.802Z,23.80
2024-04-10T13:27:14.987Z,23.60
2024-04-10T13:29:41.837Z,23.60
2024-04-10T13:32:09.716Z,23.60
2024-04-10T13:34:36.701Z,23.80
2024-04-10T13:37:03.759Z,23.90
2024-04-10T13:39:31.172Z,23.70
2024-04-10T13:41:58.092Z,23.80
2024-04-10T13:44:24.962Z,24.10
2024-04-10T13:46:51.792Z,24.30
2024-04-10T13:49:18.676Z,24.30
2024-04-10T13:51:45.447Z,24.20
2024-04-10T13:54:12.304Z,24.20
2024-04-10T13:56:39.080Z,24.20
2024-04-10T13:59:05.832Z,23.90
2024-04-10T14:01:32.864Z,23.60
2024-04-10T14:03:59.921Z,23.30
2024-04-10T14:06:29.223Z,23.10
2024-04-10T14:08:57.057Z,23.00
2024-04-10T14:11:24.522Z,23.10
2024-04-10T14:13:52.495Z,23.00
2024-04-10T14:16:20.310Z,22.80
2024-04-10T14:18:47.384Z,22.70
2024-04-10T14:21:14.564Z,22.50
2024-04-10T14:23:44.221Z,22.40
2024-04-10T14:26:16.254Z,22.50
2024-04-10T14:28:43.531Z,22.50
2024-04-10T14:31:12.320Z,22.50
2024-04-10T14:33:41.405Z,22.50
2024-04-10T14:36:09.217Z,22.60
2024-04-10T14:38:36.772Z,22.70
2024-04-10T14:41:04.892Z,22.80
2024-04-10T14:43:33.246Z,22.90
2024-04-10T14:46:09.867Z,23.00
2024-04-10T14:48:38.223Z,23.00
2024-04-10T14:51:06.442Z,23.10
2024-04-10T14:53:33.283Z,23.20
2024-04-10T14:56:08.449Z,23.10
2024-04-10T14:58:35.480Z,22.80
2024-04-10T15:01:12.039Z,22.60
2024-04-10T15:03:39.425Z,22.40
2024-04-10T15:06:06.932Z,22.20
2024-04-10T15:08:33.811Z,22.20
2024-04-10T15:11:00.734Z,22.20
2024-04-10T15:13:29.253Z,22.10
2024-04-10T15:15:56.063Z,22.00
2024-04-10T15:18:27.042Z,21.90
2024-04-10T15:20:55.061Z,21.70
2024-04-10T15:23:22.756Z,21.60
2024-04-10T15:25:57.564Z,21.50
2024-04-10T15:28:25.022Z,21.40
2024-04-10T15:31:03.045Z,21.40
2024-04-10T15:33:32.221Z,21.30
2024-04-10T15:36:06.355Z,21.20
2024-04-10T15:38:35.094Z,21.10
2024-04-10T15:41:04.269Z,20.90
2024-04-10T15:43:31.073Z,20.80
2024-04-10T15:45:59.702Z,20.60
2024-04-10T15:48:27.678Z,20.40
2024-04-10T15:50:56.441Z,20.20
2024-04-10T15:53:24.326Z,19.90
2024-04-10T15:56:05.748Z,19.70
2024-04-10T15:58:33.767Z,19.40
2024-04-10T16:01:05.774Z,19.20
2024-04-10T16:03:34.963Z,19.00
2024-04-10T16:06:05.012Z,18.90
2024-04-10T16:08:32.018Z,18.80
2024-04-10T16:10:59.072Z,18.60
2024-04-10T16:13:26.262Z,18.50
2024-04-10T16:15:53.873Z,18.30
2024-04-10T16:18:23.655Z,18.20
2024-04-10T16:20:50.551Z,18.10
2024-04-10T16:23:17.418Z,18.00
2024-04-10T16:25:44.172Z,17.80
2024-04-10T16:28:11.249Z,17.70
2024-04-10T16:30:41.190Z,17.60
2024-04-10T16:33:08.242Z,17.50
2024-04-10T16:35:35.189Z,17.30
2024-04-10T16:38:01.966Z,17.20
2024-04-10T16:40:28.675Z,17.10
2024-04-10T16:42:55.698Z,17.00
2024-04-10T16:45:25.127Z,16.90
2024-04-10T16:47:52.314Z,16.80
2024-04-10T16:50:19.571Z,16.80
2024-04-10T16:52:51.009Z,16.60
2024-04-10T16:55:17.954Z,16.60
2024-04-10T16:57:44.745Z,16.40
2024-04-10T17:00:12.459Z,16.30
2024-04-10T17:02:39.418Z,16.20
2024-04-10T17:05:06.804Z,16.10
2024-04-10T17:07:33.979Z,16.00
2024-04-10T17:10:00.829Z,15.90
2024-04-10T17:12:30.477Z,15.80
2024-04-10T17:14:57.708Z,15.80
2024-04-10T17:17:31.517Z,15.70
2024-04-10T17:20:27.731Z,15.60
2024-04-10T17:22:54.487Z,15.50
2024-04-10T17:25:21.383Z,15.40
2024-04-10T17:27:48.506Z,15.30
2024-04-10T17:30:15.479Z,15.20
2024-04-10T17:32:42.386Z,15.10
2024-04-10T17:35:09.250Z,15.00
2024-04-10T17:37:36.531Z,14.90
2024-04-10T17:40:03.998Z,14.80
2024-04-10T17:42:30.877Z,14.70
2024-04-10T17:44:57.588Z,15.90
2024-04-10T17:47:24.492Z,14.60
2024-04-10T17:49:51.329Z,14.40
2024-04-10T17:52:18.036Z,14.30
2024-04-10T17:54:44.761Z,14.20
2024-04-10T17:57:11.710Z,14.10
2024-04-10T17:59:38.603Z,14.00
2024-04-10T18:02:05.417Z,13.90
2024-04-10T18:04:32.179Z,13.80
2024-04-10T18:06:58.915Z,13.70
2024-04-10T18:09:25.698Z,13.60
2024-04-10T18:11:52.495Z,13.50
2024-04-10T18:14:19.370Z,13.40
2024-04-10T18:16:46.192Z,13.30
2024-04-10T18:19:13.403Z,13.20
2024-04-10T18:21:40.359Z,13.10
2024-04-10T18:24:07.602Z,12.90
2024-04-10T18:26:34.649Z,12.90
2024-04-10T18:29:07.147Z,12.70
2024-04-10T18:31:35.460Z,12.60
2024-04-10T18:34:02.319Z,12.50
2024-04-10T18:36:29.204Z,12.30
2024-04-10T18:38:55.967Z,12.20
2024-04-10T18:41:22.750Z,12.10
2024-04-10T18:43:49.536Z,12.00
2024-04-10T18:46:16.932Z,11.90
2024-04-10T18:48:43.924Z,11.80
2024-04-10T18:51:24.956Z,11.70
2024-04-10T18:53:51.900Z,11.60
2024-04-10T18:56:19.395Z,11.50
2024-04-10T18:58:46.676Z,11.50
2024-04-10T19:01:14.507Z,11.40
2024-04-10T19:03:43.385Z,11.30
2024-04-10T19:06:13.083Z,11.20
2024-04-10T19:08:41.756Z,11.10
2024-04-10T19:11:09.016Z,11.10
2024-04-10T19:13:36.115Z,11.00
2024-04-10T19:16:03.575Z,10.90
2024-04-10T19:18:32.999Z,10.80
2024-04-10T19:21:01.979Z,10.70
2024-04-10T19:23:29.388Z,10.70
2024-04-10T19:25:57.784Z,10.60
2024-04-10T19:28:26.360Z,10.50
2024-04-10T19:30:54.283Z,10.50
2024-04-10T19:33:22.003Z,10.40
2024-04-10T19:35:49.116Z,10.30
2024-04-10T19:38:16.724Z,10.20
2024-04-10T19:40:44.172Z,10.20
2024-04-10T19:43:11.379Z,10.10
2024-04-10T19:45:39.560Z,10.00
2024-04-10T19:48:07.592Z,9.90
2024-04-10T19:50:34.760Z,9.90
2024-04-10T19:53:01.459Z,9.80
2024-04-10T19:55:28.216Z,9.80
2024-04-10T19:57:54.955Z,9.70
2024-04-10T20:00:21.680Z,9.70
2024-04-10T20:02:49.380Z,9.60
2024-04-10T20:05:19.747Z,9.60
2024-04-10T20:07:47.922Z,9.60
2024-04-10T20:10:14.746Z,9.50
2024-04-10T20:12:41.685Z,9.40
2024-04-10T20:15:08.704Z,9.30
2024-04-10T20:17:35.978Z,9.30
2024-04-10T20:20:02.895Z,9.20
2024-04-10T20:22:29.662Z,9.20
2024-04-10T20:25:00.934Z,9.20
2024-04-10T20:27:27.698Z,9.20
2024-04-10T20:29:54.562Z,9.00
2024-04-10T20:32:21.547Z,8.90
2024-04-10T20:34:51.624Z,8.90
2024-04-10T20:37:18.339Z,8.80
2024-04-10T20:39:46.900Z,8.80
2024-04-10T20:42:19.868Z,8.80
2024-04-10T20:44:50.112Z,8.70
2024-04-10T20:47:22.404Z,8.70
2024-04-10T20:49:53.761Z,8.60
2024-04-10T20:52:21.333Z,8.60
2024-04-10T20:54:54.719Z,8.50
2024-04-10T20:57:21.439Z,8.40
2024-04-10T20:59:49.113Z,8.30
2024-04-10T21:02:21.747Z,8.20
2024-04-10T21:04:49.309Z,8.10
2024-04-10T21:07:34.891Z,8.00
2024-04-10T21:10:20.360Z,8.00
2024-04-10T21:13:05.915Z,7.90
2024-04-10T21:15:52.690Z,7.90
2024-04-10T21:18:39.360Z,7.90
2024-04-10T21:21:25.147Z,7.90
2024-04-10T21:24:10.869Z,7.90
2024-04-10T21:26:56.341Z,7.90
2024-04-10T21:29:41.861Z,7.80
2024-04-10T21:32:27.305Z,7.70
2024-04-10T21:35:15.281Z,7.60
2024-04-10T21:38:01.380Z,7.60
2024-04-10T21:40:46.682Z,7.60
2024-04-10T21:43:32.187Z,7.60
2024-04-10T21:46:18.510Z,7.50
2024-04-10T21:49:04.076Z,7.50
2024-04-10T21:51:49.737Z,7.50
2024-04-10T21:54:35.279Z,7.40
2024-04-10T21:57:20.952Z,7.40
2024-04-10T22:00:26.672Z,7.40
2024-04-10T22:03:12.514Z,7.40
2024-04-10T22:05:58.469Z,7.30
2024-04-10T22:08:44.253Z,7.20
2024-04-10T22:11:11.064Z,7.10
2024-04-10T22:13:38.166Z,7.00
2024-04-10T22:16:05.461Z,6.90
2024-04-10T22:18:51.252Z,6.90
2024-04-10T22:21:36.887Z,6.90
2024-04-10T22:24:05.523Z,6.80
2024-04-10T22:26:33.266Z,6.70
2024-04-10T22:29:00.062Z,6.70
2024-04-10T22:31:26.828Z,6.60
2024-04-10T22:33:54.519Z,6.60
2024-04-10T22:36:22.601Z,6.50
2024-04-10T22:38:49.404Z,6.50
2024-04-10T22:41:16.807Z,6.50
2024-04-10T22:43:43.978Z,6.50
2024-04-10T22:46:11.171Z,6.50
2024-04-10T22:48:39.191Z,6.50
2024-04-10T22:51:06.143Z,6.50
2024-04-10T22:53:33.012Z,6.60
2024-04-10T22:55:59.753Z,6.60
2024-04-10T22:58:26.460Z,6.70
2024-04-10T23:00:53.319Z,6.70
2024-04-10T23:03:20.397Z,6.70
2024-04-10T23:05:52.709Z,6.70
2024-04-10T23:08:31.347Z,6.70
2024-04-10T23:11:03.424Z,6.60
2024-04-10T23:13:31.082Z,6.60
2024-04-10T23:15:57.907Z,6.60
2024-04-10T23:18:36.388Z,6.50
2024-04-10T23:21:11.450Z,6.40
2024-04-10T23:23:38.176Z,6.40
2024-04-10T23:26:05.008Z,6.30
2024-04-10T23:28:31.892Z,6.20
2024-04-10T23:30:58.633Z,6.20
2024-04-10T23:33:25.545Z,6.10
2024-04-10T23:35:52.555Z,6.00
2024-04-10T23:38:19.475Z,6.00
2024-04-10T23:40:46.278Z,5.90
2024-04-10T23:43:12.995Z,5.90
2024-04-10T23:45:40.129Z,5.90
2024-04-10T23:48:07.524Z,5.80
2024-04-10T23:50:34.582Z,5.70
2024-04-10T23:53:01.347Z,5.60
2024-04-10T23:55:28.293Z,5.60
2024-04-10T23:57:58.168Z,5.50
